Time;durP1;ratioP1;P1;durP2;ratioP2;P2;SDS_P1;SDS_P2;PMS_P1;PMS_P2;Temp;Humidity;BMP_temperature;BMP_pressure;BME280_temperature;BME280_humidity;BME280_pressure;Samples;Min_cycle;Max_cycle;Signal;HPM_P1;HPM_P2
2022/04/13 00:01:41;;;;;;;;;;;12.80;99.90;;;;;;5000122;28;19929;-69
2022/04/13 00:04:06;;;;;;;;;;;12.80;99.90;;;;;;4997471;28;19947;-68
2022/04/13 00:06:32;;;;;;;;;;;12.70;99.90;;;;;;5006054;28;19932;-68
2022/04/13 00:09:00;;;;;;;;;;;12.60;99.90;;;;;;5002183;28;20488;-69
2022/04/13 00:11:25;;;;;;;;;;;12.60;99.90;;;;;;5002757;28;19925;-69
2022/04/13 00:13:51;;;;;;;;;;;12.60;99.90;;;;;;4999145;28;20391;-69
2022/04/13 00:16:16;;;;;;;;;;;12.50;99.90;;;;;;5001613;28;19925;-68
2022/04/13 00:18:42;;;;;;;;;;;12.50;99.90;;;;;;5005602;28;19930;-69
2022/04/13 00:21:07;;;;;;;;;;;12.60;99.90;;;;;;5005853;28;19932;-68
2022/04/13 00:23:33;;;;;;;;;;;12.50;99.90;;;;;;5007768;28;19925;-68
2022/04/13 00:25:59;;;;;;;;;;;12.30;99.90;;;;;;4998700;28;19925;-68
2022/04/13 00:28:24;;;;;;;;;;;12.40;99.90;;;;;;5003531;28;20249;-68
2022/04/13 00:30:50;;;;;;;;;;;12.30;99.90;;;;;;5011929;28;19925;-68
2022/04/13 00:33:15;;;;;;;;;;;12.20;99.90;;;;;;4999829;28;20054;-68
2022/04/13 00:35:41;;;;;;;;;;;12.10;99.90;;;;;;5002735;28;20704;-69
2022/04/13 00:38:06;;;;;;;;;;;12.10;99.90;;;;;;5015151;28;19933;-69
2022/04/13 00:40:32;;;;;;;;;;;12.10;99.90;;;;;;5002094;28;20346;-69
2022/04/13 00:42:57;;;;;;;;;;;12.00;99.90;;;;;;5003624;28;19926;-69
2022/04/13 00:45:23;;;;;;;;;;;12.00;99.90;;;;;;5002469;28;19925;-69
2022/04/13 00:47:49;;;;;;;;;;;12.00;99.90;;;;;;4999440;28;20402;-69
2022/04/13 00:50:15;;;;;;;;;;;12.00;99.90;;;;;;5000201;28;19926;-69
2022/04/13 00:52:43;;;;;;;;;;;12.00;99.90;;;;;;4999530;28;19932;-69
2022/04/13 00:55:13;;;;;;;;;;;12.00;99.90;;;;;;5000396;28;19925;-70
2022/04/13 00:57:40;;;;;;;;;;;11.90;99.90;;;;;;5000159;28;19968;-69
2022/04/13 01:00:07;;;;;;;;;;;11.90;99.90;;;;;;4998970;28;19983;-70
2022/04/13 01:02:35;;;;;;;;;;;12.00;99.90;;;;;;5001961;28;19979;-68
2022/04/13 01:05:02;;;;;;;;;;;12.00;99.90;;;;;;4981820;28;19960;-69
2022/04/13 01:07:29;;;;;;;;;;;12.00;99.90;;;;;;4999193;28;19930;-69
2022/04/13 01:09:54;;;;;;;;;;;12.10;99.90;;;;;;5002487;28;20351;-70
2022/04/13 01:12:20;;;;;;;;;;;12.10;99.90;;;;;;4999873;28;19932;-69
2022/04/13 01:14:49;;;;;;;;;;;13.30;99.90;;;;;;4999015;28;19930;-69
2022/04/13 01:17:15;;;;;;;;;;;12.10;99.90;;;;;;4997292;28;19985;-69
2022/04/13 01:19:40;;;;;;;;;;;12.10;99.90;;;;;;5000209;28;19929;-68
2022/04/13 01:22:13;;;;;;;;;;;12.20;99.90;;;;;;5006105;28;20011;-69
2022/04/13 01:24:38;;;;;;;;;;;12.10;99.90;;;;;;5000691;28;19930;-68
2022/04/13 01:27:04;;;;;;;;;;;12.10;99.90;;;;;;5002797;28;19928;-68
2022/04/13 01:29:30;;;;;;;;;;;12.20;99.90;;;;;;5006663;28;20008;-70
2022/04/13 01:31:56;;;;;;;;;;;12.20;99.90;;;;;;5005193;28;19921;-68
2022/04/13 01:34:25;;;;;;;;;;;12.20;99.90;;;;;;5002466;28;20184;-69
2022/04/13 01:36:50;;;;;;;;;;;12.20;99.90;;;;;;5001771;28;20387;-69
2022/04/13 01:39:16;;;;;;;;;;;12.20;99.90;;;;;;5002805;28;19928;-69
2022/04/13 01:41:42;;;;;;;;;;;12.20;99.90;;;;;;4999447;28;19922;-69
2022/04/13 01:44:07;;;;;;;;;;;12.20;99.90;;;;;;5004747;28;20017;-69
2022/04/13 01:46:33;;;;;;;;;;;12.20;99.90;;;;;;5003482;28;19953;-69
2022/04/13 01:48:58;;;;;;;;;;;12.20;99.90;;;;;;5007530;28;19925;-69
2022/04/13 01:51:24;;;;;;;;;;;12.20;99.90;;;;;;5010548;28;20040;-69
2022/04/13 01:53:50;;;;;;;;;;;12.20;99.90;;;;;;5009485;28;19928;-69
2022/04/13 01:56:16;;;;;;;;;;;12.20;99.90;;;;;;5005991;28;19922;-69
2022/04/13 01:58:41;;;;;;;;;;;12.20;99.90;;;;;;5006283;28;20031;-68
2022/04/13 02:01:07;;;;;;;;;;;12.20;99.90;;;;;;5004581;28;19922;-69
2022/04/13 02:03:33;;;;;;;;;;;12.20;99.90;;;;;;5008589;28;20067;-69
2022/04/13 02:05:58;;;;;;;;;;;12.20;99.90;;;;;;5001489;28;19943;-69
2022/04/13 02:08:24;;;;;;;;;;;12.40;99.90;;;;;;5002311;28;19925;-67
2022/04/13 02:10:50;;;;;;;;;;;12.20;99.90;;;;;;5008080;28;19928;-69
2022/04/13 02:13:15;;;;;;;;;;;12.20;99.90;;;;;;5007188;28;19997;-69
2022/04/13 02:15:45;;;;;;;;;;;12.20;99.90;;;;;;5008762;28;20013;-70
2022/04/13 02:18:10;;;;;;;;;;;12.10;99.90;;;;;;5003950;28;19921;-70
2022/04/13 02:20:36;;;;;;;;;;;12.10;99.90;;;;;;5003364;28;19921;-70
2022/04/13 02:23:02;;;;;;;;;;;12.10;99.90;;;;;;5004971;28;20027;-70
2022/04/13 02:25:27;;;;;;;;;;;12.10;99.90;;;;;;5007664;28;20363;-69
2022/04/13 02:27:53;;;;;;;;;;;12.10;99.90;;;;;;5006860;28;19925;-70
2022/04/13 02:30:19;;;;;;;;;;;12.10;99.90;;;;;;5002442;28;19921;-70
2022/04/13 02:32:44;;;;;;;;;;;12.20;99.90;;;;;;5007901;28;19929;-68
2022/04/13 02:35:11;;;;;;;;;;;12.20;99.90;;;;;;5010021;28;20383;-69
2022/04/13 02:37:36;;;;;;;;;;;12.20;99.90;;;;;;4998561;28;19921;-68
2022/04/13 02:40:02;;;;;;;;;;;12.20;99.90;;;;;;5006091;28;20364;-69
2022/04/13 02:42:31;;;;;;;;;;;12.20;99.90;;;;;;5021257;28;20288;-69
2022/04/13 02:44:57;;;;;;;;;;;12.20;99.90;;;;;;5008973;28;19948;-69
2022/04/13 02:47:22;;;;;;;;;;;12.20;99.90;;;;;;4998890;28;19965;-68
2022/04/13 02:49:48;;;;;;;;;;;12.20;99.90;;;;;;5004000;28;19934;-68
2022/04/13 02:52:14;;;;;;;;;;;12.20;99.90;;;;;;5002208;28;19929;-69
2022/04/13 02:54:39;;;;;;;;;;;12.20;99.90;;;;;;4999785;28;19929;-70
2022/04/13 02:57:04;;;;;;;;;;;12.20;99.90;;;;;;5001418;28;19921;-69
2022/04/13 02:59:30;;;;;;;;;;;12.20;99.90;;;;;;5001631;28;19937;-69
2022/04/13 03:01:56;;;;;;;;;;;12.20;99.90;;;;;;5001274;28;19921;-68
2022/04/13 03:04:21;;;;;;;;;;;12.20;99.90;;;;;;5000214;28;19922;-69
2022/04/13 03:06:46;;;;;;;;;;;12.50;99.90;;;;;;5002821;28;19960;-68
2022/04/13 03:09:12;;;;;;;;;;;12.20;99.90;;;;;;5001934;28;19921;-69
2022/04/13 03:11:38;;;;;;;;;;;12.20;99.90;;;;;;5013001;28;19951;-69
2022/04/13 03:14:04;;;;;;;;;;;12.20;99.90;;;;;;4998162;28;19964;-68
2022/04/13 03:16:29;;;;;;;;;;;12.20;99.90;;;;;;4998696;28;19922;-69
2022/04/13 03:18:55;;;;;;;;;;;12.20;99.90;;;;;;5012491;28;19927;-68
2022/04/13 03:21:20;;;;;;;;;;;12.20;99.90;;;;;;5003909;28;19961;-69
2022/04/13 03:23:46;;;;;;;;;;;12.20;99.90;;;;;;5007736;28;20406;-68
2022/04/13 03:26:11;;;;;;;;;;;12.30;99.90;;;;;;5021520;28;19921;-69
2022/04/13 03:28:37;;;;;;;;;;;12.20;99.90;;;;;;5008939;28;20371;-68
2022/04/13 03:31:03;;;;;;;;;;;12.30;99.90;;;;;;5001656;28;19928;-69
2022/04/13 03:33:28;;;;;;;;;;;12.30;99.90;;;;;;5004132;28;20220;-69
2022/04/13 03:35:54;;;;;;;;;;;12.30;99.90;;;;;;5008573;28;20382;-70
2022/04/13 03:38:19;;;;;;;;;;;12.20;99.90;;;;;;5004382;28;19976;-68
2022/04/13 03:40:45;;;;;;;;;;;12.20;99.90;;;;;;5009119;28;19933;-70
2022/04/13 03:43:11;;;;;;;;;;;12.10;99.90;;;;;;5005109;28;19936;-68
2022/04/13 03:45:36;;;;;;;;;;;12.10;99.90;;;;;;5016858;28;20000;-70
2022/04/13 03:48:02;;;;;;;;;;;12.10;99.90;;;;;;5008351;28;20020;-70
2022/04/13 03:50:27;;;;;;;;;;;12.00;99.90;;;;;;5005842;28;19921;-69
2022/04/13 03:52:53;;;;;;;;;;;12.00;99.90;;;;;;5002503;28;19947;-68
2022/04/13 03:55:22;;;;;;;;;;;11.90;99.90;;;;;;5001222;28;19976;-69
2022/04/13 03:57:51;;;;;;;;;;;11.90;99.90;;;;;;5009681;28;19992;-69
2022/04/13 04:00:17;;;;;;;;;;;11.90;99.90;;;;;;5007480;28;19984;-68
2022/04/13 04:02:43;;;;;;;;;;;11.80;99.90;;;;;;5007419;28;19928;-68
2022/04/13 04:05:09;;;;;;;;;;;11.80;99.90;;;;;;5003255;28;19928;-69
2022/04/13 04:07:35;;;;;;;;;;;11.70;99.90;;;;;;5001710;28;19930;-68
2022/04/13 04:10:01;;;;;;;;;;;11.70;99.90;;;;;;4990065;28;19921;-68
2022/04/13 04:12:27;;;;;;;;;;;11.60;99.90;;;;;;5000785;28;19921;-68
2022/04/13 04:14:52;;;;;;;;;;;11.70;99.90;;;;;;5009922;28;20299;-68
2022/04/13 04:17:18;;;;;;;;;;;11.70;99.90;;;;;;5005877;28;19928;-69
2022/04/13 04:19:45;;;;;;;;;;;11.60;99.90;;;;;;5003303;28;19918;-70
2022/04/13 04:22:13;;;;;;;;;;;11.70;99.90;;;;;;5014341;28;19928;-69
2022/04/13 04:24:42;;;;;;;;;;;11.60;99.90;;;;;;5005024;28;20287;-70
2022/04/13 04:27:07;;;;;;;;;;;11.60;99.90;;;;;;5007295;28;19929;-69
2022/04/13 04:29:33;;;;;;;;;;;11.60;99.90;;;;;;5004513;28;19972;-69
2022/04/13 04:31:59;;;;;;;;;;;11.60;99.90;;;;;;5004357;28;19921;-68
2022/04/13 04:34:25;;;;;;;;;;;11.60;99.90;;;;;;5004243;28;19941;-69
2022/04/13 04:36:50;;;;;;;;;;;11.50;99.90;;;;;;5003551;28;19929;-69
2022/04/13 04:39:16;;;;;;;;;;;11.50;99.90;;;;;;5022339;28;19921;-70
2022/04/13 04:41:42;;;;;;;;;;;11.50;99.90;;;;;;5009023;28;19922;-68
2022/04/13 04:44:09;;;;;;;;;;;11.50;99.90;;;;;;5007410;28;19929;-69
2022/04/13 04:46:34;;;;;;;;;;;11.50;99.90;;;;;;5004196;28;20379;-68
2022/04/13 04:49:00;;;;;;;;;;;11.40;99.90;;;;;;5000681;28;19984;-70
2022/04/13 04:51:26;;;;;;;;;;;11.40;99.90;;;;;;4998613;28;19925;-68
2022/04/13 04:53:51;;;;;;;;;;;11.50;99.90;;;;;;5002723;28;20368;-69
2022/04/13 04:56:17;;;;;;;;;;;11.50;99.90;;;;;;5002970;28;19930;-68
2022/04/13 04:58:46;;;;;;;;;;;11.50;99.90;;;;;;5001246;28;19925;-69
2022/04/13 05:01:13;;;;;;;;;;;11.50;99.90;;;;;;5004278;28;19921;-69
2022/04/13 05:03:38;;;;;;;;;;;11.50;99.90;;;;;;5003545;28;20315;-69
2022/04/13 05:06:04;;;;;;;;;;;11.50;99.90;;;;;;5000374;28;19926;-69
2022/04/13 05:08:33;;;;;;;;;;;11.50;99.90;;;;;;4997275;28;20487;-68
2022/04/13 05:10:59;;;;;;;;;;;12.30;99.90;;;;;;5001965;28;19927;-67
2022/04/13 05:13:25;;;;;;;;;;;11.70;99.90;;;;;;5010341;28;19933;-69
2022/04/13 05:15:53;;;;;;;;;;;11.60;99.90;;;;;;5005400;28;19929;-69
2022/04/13 05:18:19;;;;;;;;;;;11.60;99.90;;;;;;5011778;28;19921;-69
2022/04/13 05:20:47;;;;;;;;;;;11.60;99.90;;;;;;5004260;28;20414;-68
2022/04/13 05:23:13;;;;;;;;;;;11.70;99.90;;;;;;5021352;28;19965;-69
2022/04/13 05:25:38;;;;;;;;;;;11.70;99.90;;;;;;5001397;28;20035;-70
2022/04/13 05:28:04;;;;;;;;;;;11.80;99.90;;;;;;5000810;28;20338;-69
2022/04/13 05:30:30;;;;;;;;;;;11.80;99.90;;;;;;5002600;28;19929;-69
2022/04/13 05:32:58;;;;;;;;;;;11.80;99.90;;;;;;5001430;28;19922;-69
2022/04/13 05:35:27;;;;;;;;;;;11.90;99.90;;;;;;5000325;28;19922;-68
2022/04/13 05:37:53;;;;;;;;;;;11.90;99.90;;;;;;5005930;28;19928;-69
2022/04/13 05:40:18;;;;;;;;;;;12.00;99.90;;;;;;5022708;28;19921;-68
2022/04/13 05:42:44;;;;;;;;;;;12.00;99.90;;;;;;5004909;28;19925;-69
2022/04/13 05:45:10;;;;;;;;;;;12.00;99.90;;;;;;5007733;28;19972;-68
2022/04/13 05:47:37;;;;;;;;;;;12.00;99.90;;;;;;4998942;28;19921;-69
2022/04/13 05:50:03;;;;;;;;;;;12.00;99.90;;;;;;5015115;28;19929;-69
2022/04/13 05:52:29;;;;;;;;;;;12.10;99.90;;;;;;5003737;28;20296;-69
2022/04/13 05:54:54;;;;;;;;;;;12.10;99.90;;;;;;5027952;28;19961;-68
2022/04/13 05:57:20;;;;;;;;;;;12.10;99.90;;;;;;5005395;28;19961;-66
2022/04/13 05:59:45;;;;;;;;;;;12.10;99.90;;;;;;4999775;28;19932;-67
2022/04/13 06:02:11;;;;;;;;;;;12.10;99.90;;;;;;5011274;28;20024;-68
2022/04/13 06:04:37;;;;;;;;;;;12.20;99.90;;;;;;5010815;28;19921;-69
2022/04/13 06:07:02;;;;;;;;;;;12.20;99.90;;;;;;5010410;28;20035;-69
2022/04/13 06:09:28;;;;;;;;;;;12.30;99.90;;;;;;5012906;28;19928;-69
2022/04/13 06:11:54;;;;;;;;;;;12.50;99.90;;;;;;5004727;28;19922;-70
2022/04/13 06:14:19;;;;;;;;;;;12.70;99.90;;;;;;5010623;28;19921;-68
2022/04/13 06:16:45;;;;;;;;;;;12.90;99.90;;;;;;5020213;28;20288;-69
2022/04/13 06:19:11;;;;;;;;;;;13.00;99.90;;;;;;5007616;28;19952;-68
2022/04/13 06:21:36;;;;;;;;;;;13.20;99.90;;;;;;5010922;28;19928;-68
2022/04/13 06:24:02;;;;;;;;;;;13.10;99.90;;;;;;4999025;28;19976;-68
2022/04/13 06:26:28;;;;;;;;;;;13.20;99.90;;;;;;5004776;28;19971;-68
2022/04/13 06:28:54;;;;;;;;;;;13.10;99.90;;;;;;4999412;28;19985;-67
2022/04/13 06:31:19;;;;;;;;;;;13.10;99.90;;;;;;4995816;28;19930;-69
2022/04/13 06:33:45;;;;;;;;;;;13.10;99.90;;;;;;5009565;28;19929;-68
2022/04/13 06:36:10;;;;;;;;;;;13.10;99.90;;;;;;5007800;28;20348;-68
2022/04/13 06:38:40;;;;;;;;;;;13.20;99.90;;;;;;5006307;28;19921;-70
2022/04/13 06:41:12;;;;;;;;;;;13.10;99.90;;;;;;5018530;28;20075;-69
2022/04/13 06:43:38;;;;;;;;;;;13.20;99.90;;;;;;5004761;28;19921;-69
2022/04/13 06:46:04;;;;;;;;;;;13.10;99.90;;;;;;5007580;28;19925;-70
2022/04/13 06:48:29;;;;;;;;;;;13.20;99.90;;;;;;4992499;28;19929;-69
2022/04/13 06:50:59;;;;;;;;;;;13.10;99.90;;;;;;5005835;28;20032;-70
2022/04/13 06:53:25;;;;;;;;;;;13.30;99.90;;;;;;5007903;28;20995;-70
2022/04/13 06:55:51;;;;;;;;;;;13.30;99.90;;;;;;5008850;28;20054;-69
2022/04/13 06:58:18;;;;;;;;;;;13.50;99.90;;;;;;5005000;28;19921;-70
2022/04/13 07:00:44;;;;;;;;;;;13.90;99.90;;;;;;5006653;28;19963;-69
2022/04/13 07:03:09;;;;;;;;;;;14.20;99.90;;;;;;5019940;28;19965;-69
2022/04/13 07:05:35;;;;;;;;;;;14.30;99.90;;;;;;5004342;28;19975;-69
2022/04/13 07:08:02;;;;;;;;;;;14.40;99.90;;;;;;5004269;28;19929;-68
2022/04/13 07:10:28;;;;;;;;;;;14.30;99.90;;;;;;5006471;28;20287;-70
2022/04/13 07:12:54;;;;;;;;;;;14.40;99.90;;;;;;5000899;28;20536;-69
2022/04/13 07:15:23;;;;;;;;;;;14.40;99.90;;;;;;5001358;28;20400;-70
2022/04/13 07:17:49;;;;;;;;;;;14.40;99.90;;;;;;5000961;28;19921;-69
2022/04/13 07:20:15;;;;;;;;;;;14.30;99.90;;;;;;5003289;28;20444;-69
2022/04/13 07:22:48;;;;;;;;;;;14.30;99.90;;;;;;5002391;28;19972;-69
2022/04/13 07:25:17;;;;;;;;;;;14.40;99.90;;;;;;5004461;28;20134;-69
2022/04/13 07:27:43;;;;;;;;;;;14.70;99.90;;;;;;5002961;28;20020;-67
2022/04/13 07:30:09;;;;;;;;;;;14.70;99.90;;;;;;4999937;28;19929;-68
2022/04/13 07:32:34;;;;;;;;;;;14.90;99.90;;;;;;5001168;28;19921;-69
2022/04/13 07:35:00;;;;;;;;;;;15.10;99.90;;;;;;5001500;28;20443;-68
2022/04/13 07:37:26;;;;;;;;;;;15.20;99.90;;;;;;5003931;28;19992;-68
2022/04/13 07:39:52;;;;;;;;;;;15.30;99.90;;;;;;5007769;28;21352;-70
2022/04/13 07:42:21;;;;;;;;;;;15.40;99.90;;;;;;4999875;28;19952;-69
2022/04/13 07:44:47;;;;;;;;;;;15.50;99.90;;;;;;5003977;28;19922;-70
2022/04/13 07:47:14;;;;;;;;;;;15.60;99.90;;;;;;5008545;28;19929;-69
2022/04/13 07:49:41;;;;;;;;;;;15.70;99.90;;;;;;5006518;28;19972;-69
2022/04/13 07:52:07;;;;;;;;;;;15.70;99.90;;;;;;4999366;28;20043;-70
2022/04/13 07:54:32;;;;;;;;;;;15.60;99.90;;;;;;5004124;28;20315;-70
2022/04/13 07:56:58;;;;;;;;;;;15.50;99.90;;;;;;4996846;28;19929;-70
2022/04/13 07:59:24;;;;;;;;;;;15.50;99.90;;;;;;5004013;28;20030;-70
2022/04/13 08:01:49;;;;;;;;;;;15.50;99.90;;;;;;5008757;28;19941;-69
2022/04/13 08:04:15;;;;;;;;;;;15.40;99.90;;;;;;5001272;28;19929;-69
2022/04/13 08:06:40;;;;;;;;;;;15.60;99.90;;;;;;5004492;28;19921;-70
2022/04/13 08:09:06;;;;;;;;;;;15.40;99.90;;;;;;5009047;28;19922;-70
2022/04/13 08:11:31;;;;;;;;;;;15.60;99.90;;;;;;5007821;28;19944;-69
2022/04/13 08:13:57;;;;;;;;;;;15.40;99.90;;;;;;5005190;28;20363;-70
2022/04/13 08:16:22;;;;;;;;;;;15.40;99.90;;;;;;5006472;28;19936;-69
2022/04/13 08:18:48;;;;;;;;;;;15.50;99.90;;;;;;5004036;28;20011;-68
2022/04/13 08:21:14;;;;;;;;;;;15.40;99.90;;;;;;5025253;28;20398;-69
2022/04/13 08:23:39;;;;;;;;;;;15.50;99.90;;;;;;5012600;28;20406;-69
2022/04/13 08:26:05;;;;;;;;;;;15.60;99.90;;;;;;5008655;28;20360;-68
2022/04/13 08:28:30;;;;;;;;;;;15.70;99.90;;;;;;5008530;28;19928;-68
2022/04/13 08:30:56;;;;;;;;;;;15.80;99.90;;;;;;5005561;28;19976;-69
2022/04/13 08:33:21;;;;;;;;;;;15.90;99.90;;;;;;5003659;28;19929;-68
2022/04/13 08:35:47;;;;;;;;;;;16.00;99.90;;;;;;5011204;28;20286;-71
2022/04/13 08:38:12;;;;;;;;;;;16.10;99.90;;;;;;4991603;28;19961;-69
2022/04/13 08:40:50;;;;;;;;;;;16.20;99.90;;;;;;5004559;28;20376;-69
2022/04/13 08:43:21;;;;;;;;;;;16.40;99.90;;;;;;5009554;28;20411;-69
2022/04/13 08:45:54;;;;;;;;;;;16.50;99.90;;;;;;5008292;28;20368;-69
2022/04/13 08:48:24;;;;;;;;;;;16.70;99.90;;;;;;5009872;28;19930;-69
2022/04/13 08:50:59;;;;;;;;;;;17.00;99.90;;;;;;5010827;28;20056;-69
2022/04/13 08:53:28;;;;;;;;;;;17.10;99.90;;;;;;5011255;28;19991;-68
2022/04/13 08:55:53;;;;;;;;;;;17.40;99.90;;;;;;5009808;28;19929;-69
2022/04/13 08:58:22;;;;;;;;;;;17.70;99.90;;;;;;5009424;28;19923;-69
2022/04/13 09:00:49;;;;;;;;;;;17.90;99.90;;;;;;5006513;28;19937;-69
2022/04/13 09:03:22;;;;;;;;;;;18.20;99.90;;;;;;5002446;28;19954;-70
2022/04/13 09:05:49;;;;;;;;;;;18.30;99.90;;;;;;5007090;28;19921;-69
2022/04/13 09:08:17;;;;;;;;;;;18.50;99.90;;;;;;5005762;28;19925;-68
2022/04/13 09:10:43;;;;;;;;;;;18.50;99.90;;;;;;5007341;28;19928;-70
2022/04/13 09:13:12;;;;;;;;;;;18.40;99.90;;;;;;5012264;28;20287;-71
2022/04/13 09:15:38;;;;;;;;;;;18.40;99.90;;;;;;5006765;28;19921;-70
2022/04/13 09:18:06;;;;;;;;;;;18.30;99.90;;;;;;5004625;28;19921;-70
2022/04/13 09:20:31;;;;;;;;;;;18.20;99.90;;;;;;5004759;28;19937;-69
2022/04/13 09:22:59;;;;;;;;;;;18.10;99.90;;;;;;5006362;28;19922;-68
2022/04/13 09:25:26;;;;;;;;;;;18.10;99.90;;;;;;5010663;28;20067;-68
2022/04/13 09:27:52;;;;;;;;;;;18.10;99.90;;;;;;5010099;28;20008;-68
2022/04/13 09:30:17;;;;;;;;;;;18.30;99.90;;;;;;5010375;28;19931;-69
2022/04/13 09:32:44;;;;;;;;;;;18.50;99.90;;;;;;5005545;28;19925;-68
2022/04/13 09:35:10;;;;;;;;;;;18.60;99.90;;;;;;5006507;28;20454;-70
2022/04/13 09:37:36;;;;;;;;;;;18.70;99.90;;;;;;5006498;28;19975;-70
2022/04/13 09:40:02;;;;;;;;;;;18.80;99.90;;;;;;5009724;28;19924;-70
2022/04/13 09:42:27;;;;;;;;;;;18.90;99.90;;;;;;4984772;28;19929;-69
2022/04/13 09:44:54;;;;;;;;;;;19.10;99.90;;;;;;5003213;28;19929;-70
2022/04/13 09:47:19;;;;;;;;;;;19.30;99.90;;;;;;5010543;28;20395;-69
2022/04/13 09:49:46;;;;;;;;;;;19.50;99.90;;;;;;5008053;28;19971;-69
2022/04/13 09:52:11;;;;;;;;;;;19.70;99.90;;;;;;5001498;28;19929;-69
2022/04/13 09:54:47;;;;;;;;;;;19.90;99.90;;;;;;4996509;28;20314;-69
2022/04/13 09:57:22;;;;;;;;;;;19.90;99.90;;;;;;5003247;28;19932;-69
2022/04/13 09:59:58;;;;;;;;;;;20.00;99.90;;;;;;4999855;28;19928;-69
2022/04/13 10:02:33;;;;;;;;;;;19.90;99.90;;;;;;5009132;28;19936;-69
2022/04/13 10:04:59;;;;;;;;;;;19.70;99.90;;;;;;5005791;28;19968;-69
2022/04/13 10:07:26;;;;;;;;;;;19.90;99.90;;;;;;5002446;28;19980;-70
2022/04/13 10:09:51;;;;;;;;;;;20.20;99.90;;;;;;5024160;28;20016;-68
2022/04/13 10:12:17;;;;;;;;;;;20.40;99.90;;;;;;5007804;28;20335;-68
2022/04/13 10:14:43;;;;;;;;;;;20.50;99.90;;;;;;5003614;28;19944;-69
2022/04/13 10:17:13;;;;;;;;;;;20.60;99.90;;;;;;5007849;28;19968;-70
2022/04/13 10:19:39;;;;;;;;;;;20.60;99.90;;;;;;5007156;28;19921;-69
2022/04/13 10:22:05;;;;;;;;;;;20.90;99.90;;;;;;5003395;28;19974;-70
2022/04/13 10:24:32;;;;;;;;;;;21.00;99.90;;;;;;5005010;28;19921;-68
2022/04/13 10:27:11;;;;;;;;;;;21.20;99.90;;;;;;5007333;28;19921;-69
2022/04/13 10:29:39;;;;;;;;;;;21.30;99.90;;;;;;5006184;28;19928;-69
2022/04/13 10:32:09;;;;;;;;;;;21.50;99.30;;;;;;5008707;28;20070;-69
2022/04/13 10:34:36;;;;;;;;;;;21.50;99.70;;;;;;5006673;28;20000;-69
2022/04/13 10:37:02;;;;;;;;;;;21.50;99.20;;;;;;5004294;28;19922;-69
2022/04/13 10:39:28;;;;;;;;;;;21.50;98.70;;;;;;5006583;28;20395;-69
2022/04/13 10:41:54;;;;;;;;;;;21.60;98.30;;;;;;5015336;28;19982;-69
2022/04/13 10:44:27;;;;;;;;;;;21.90;97.50;;;;;;5000244;28;19922;-68
2022/04/13 10:46:54;;;;;;;;;;;21.90;97.00;;;;;;4998926;28;20315;-69
2022/04/13 10:49:23;;;;;;;;;;;21.80;96.90;;;;;;4996011;28;19929;-70
2022/04/13 10:51:53;;;;;;;;;;;21.90;97.40;;;;;;4996981;28;19975;-70
2022/04/13 10:54:20;;;;;;;;;;;21.80;96.00;;;;;;4996167;28;19980;-69
2022/04/13 10:56:49;;;;;;;;;;;21.60;96.40;;;;;;5004071;28;19930;-69
2022/04/13 10:59:17;;;;;;;;;;;21.80;97.00;;;;;;4991752;28;19968;-69
2022/04/13 11:01:50;;;;;;;;;;;22.20;97.00;;;;;;5007755;28;19922;-69
2022/04/13 11:04:16;;;;;;;;;;;22.60;96.10;;;;;;5003205;28;20392;-70
2022/04/13 11:06:43;;;;;;;;;;;23.00;94.80;;;;;;5002754;28;19976;-69
2022/04/13 11:09:41;;;;;;;;;;;23.10;95.00;;;;;;4999953;28;19929;-69
2022/04/13 11:12:07;;;;;;;;;;;23.20;93.20;;;;;;4980984;28;19921;-70
2022/04/13 11:14:45;;;;;;;;;;;23.30;92.90;;;;;;5006132;28;19925;-69
2022/04/13 11:17:10;;;;;;;;;;;23.00;92.80;;;;;;5003927;28;19972;-68
2022/04/13 11:19:36;;;;;;;;;;;22.70;93.30;;;;;;5002019;28;20363;-69
2022/04/13 11:22:01;;;;;;;;;;;22.50;92.70;;;;;;4998916;28;19929;-69
2022/04/13 11:24:33;;;;;;;;;;;22.20;92.70;;;;;;5015472;28;20263;-68
2022/04/13 11:26:59;;;;;;;;;;;21.90;93.10;;;;;;4999773;28;19921;-68
2022/04/13 11:29:31;;;;;;;;;;;21.70;92.80;;;;;;4996435;28;19936;-69
2022/04/13 11:32:00;;;;;;;;;;;21.40;94.80;;;;;;4997705;28;19925;-70
2022/04/13 11:34:43;;;;;;;;;;;21.30;93.90;;;;;;4997881;28;20052;-68
2022/04/13 11:37:09;;;;;;;;;;;21.30;95.20;;;;;;4997634;28;19922;-70
2022/04/13 11:39:50;;;;;;;;;;;21.20;94.80;;;;;;4997318;28;19941;-69
2022/04/13 11:42:36;;;;;;;;;;;21.20;95.10;;;;;;5003388;28;20283;-69
2022/04/13 11:45:05;;;;;;;;;;;20.90;94.90;;;;;;4996916;28;19922;-69
2022/04/13 11:47:47;;;;;;;;;;;20.70;95.40;;;;;;5005634;28;20004;-69
2022/04/13 11:50:12;;;;;;;;;;;20.50;95.40;;;;;;4995209;28;19925;-68
2022/04/13 11:52:46;;;;;;;;;;;20.50;94.70;;;;;;5002816;28;20276;-69
2022/04/13 11:55:27;;;;;;;;;;;20.00;95.50;;;;;;5009160;28;19968;-69
2022/04/13 11:58:08;;;;;;;;;;;18.60;96.20;;;;;;5011734;28;20359;-67
2022/04/13 12:00:37;;;;;;;;;;;19.20;97.10;;;;;;5008285;28;19959;-68
2022/04/13 12:03:07;;;;;;;;;;;19.10;97.30;;;;;;5008073;28;19921;-68
2022/04/13 12:05:35;;;;;;;;;;;19.20;97.00;;;;;;4994482;28;19921;-67
2022/04/13 12:08:00;;;;;;;;;;;19.10;97.00;;;;;;5007779;28;20012;-69
2022/04/13 12:10:36;;;;;;;;;;;19.10;97.40;;;;;;5008990;28;20047;-69
2022/04/13 12:13:03;;;;;;;;;;;18.70;97.40;;;;;;5009647;28;19927;-68
2022/04/13 12:15:51;;;;;;;;;;;18.70;97.20;;;;;;5009778;28;19929;-68
2022/04/13 12:18:21;;;;;;;;;;;18.70;97.70;;;;;;5007618;28;19925;-67
2022/04/13 12:20:47;;;;;;;;;;;18.60;97.60;;;;;;4999225;28;19975;-67
2022/04/13 12:23:17;;;;;;;;;;;18.50;98.30;;;;;;5007838;28;19929;-67
2022/04/13 12:25:46;;;;;;;;;;;18.40;98.50;;;;;;5000535;28;19921;-67
2022/04/13 12:28:12;;;;;;;;;;;18.50;98.80;;;;;;4998558;28;19925;-68
2022/04/13 12:30:38;;;;;;;;;;;18.50;98.50;;;;;;5002751;28;19940;-70
2022/04/13 12:33:15;;;;;;;;;;;18.40;99.40;;;;;;4987544;28;20376;-69
2022/04/13 12:35:45;;;;;;;;;;;18.40;99.90;;;;;;5007726;28;20361;-70
2022/04/13 12:38:19;;;;;;;;;;;18.50;99.80;;;;;;5008053;28;19922;-69
2022/04/13 12:40:45;;;;;;;;;;;18.60;99.20;;;;;;5006975;28;19917;-70
2022/04/13 12:43:12;;;;;;;;;;;18.60;99.70;;;;;;5008137;28;20257;-70
2022/04/13 12:45:37;;;;;;;;;;;18.60;99.40;;;;;;5008351;28;19929;-70
2022/04/13 12:48:08;;;;;;;;;;;18.60;99.70;;;;;;5005761;28;19928;-69
2022/04/13 12:50:33;;;;;;;;;;;18.40;99.90;;;;;;5004753;28;19921;-70
2022/04/13 12:52:59;;;;;;;;;;;18.20;99.90;;;;;;5005391;28;20382;-69
2022/04/13 12:55:25;;;;;;;;;;;18.10;99.90;;;;;;5012199;28;20379;-70
2022/04/13 12:57:50;;;;;;;;;;;18.00;99.90;;;;;;5007400;28;20741;-69
2022/04/13 13:00:35;;;;;;;;;;;18.00;99.90;;;;;;5007405;28;20363;-69
2022/04/13 13:03:00;;;;;;;;;;;17.90;99.90;;;;;;5008348;28;19925;-69
2022/04/13 13:05:26;;;;;;;;;;;17.90;99.90;;;;;;5010047;28;19983;-70
2022/04/13 13:07:51;;;;;;;;;;;17.90;99.90;;;;;;5007980;28;19936;-69
2022/04/13 13:10:18;;;;;;;;;;;17.80;99.90;;;;;;5010763;28;20400;-69
2022/04/13 13:12:43;;;;;;;;;;;17.80;99.90;;;;;;5011123;28;19943;-74
2022/04/13 13:15:09;;;;;;;;;;;17.90;99.90;;;;;;5004444;28;20363;-70
2022/04/13 13:17:42;;;;;;;;;;;17.90;99.90;;;;;;5009021;28;19926;-70
2022/04/13 13:20:13;;;;;;;;;;;17.80;99.90;;;;;;5005804;28;20367;-69
2022/04/13 13:22:45;;;;;;;;;;;17.80;99.90;;;;;;5004409;28;19936;-68
2022/04/13 13:25:13;;;;;;;;;;;17.60;99.90;;;;;;5009629;28;19928;-70
2022/04/13 13:27:41;;;;;;;;;;;17.50;99.90;;;;;;5008544;28;19999;-69
2022/04/13 13:30:15;;;;;;;;;;;17.50;99.90;;;;;;5010263;28;19973;-69
2022/04/13 13:32:42;;;;;;;;;;;17.40;99.90;;;;;;4992348;28;19928;-70
2022/04/13 13:35:09;;;;;;;;;;;17.40;99.90;;;;;;5006732;28;19921;-70
2022/04/13 13:37:44;;;;;;;;;;;17.40;99.90;;;;;;5004964;28;19921;-69
2022/04/13 13:40:29;;;;;;;;;;;17.30;99.90;;;;;;5009368;28;19927;-69
2022/04/13 13:42:55;;;;;;;;;;;17.30;99.90;;;;;;5005891;28;20381;-70
2022/04/13 13:45:21;;;;;;;;;;;17.20;99.90;;;;;;4989876;28;19935;-68
2022/04/13 13:47:46;;;;;;;;;;;17.30;99.90;;;;;;5007325;28;19921;-70
2022/04/13 13:50:12;;;;;;;;;;;17.40;99.90;;;;;;5006046;28;19929;-69
2022/04/13 13:52:37;;;;;;;;;;;17.50;99.90;;;;;;5006178;28;19921;-70
2022/04/13 13:55:04;;;;;;;;;;;17.60;99.90;;;;;;5008002;28;20088;-68
2022/04/13 13:57:29;;;;;;;;;;;17.80;99.90;;;;;;4995930;28;19929;-69
2022/04/13 13:59:55;;;;;;;;;;;17.80;99.90;;;;;;4988111;28;19921;-70
2022/04/13 14:02:20;;;;;;;;;;;17.70;99.90;;;;;;5006125;28;19928;-71
2022/04/13 14:04:49;;;;;;;;;;;17.80;99.90;;;;;;5021443;28;20324;-71
2022/04/13 14:07:16;;;;;;;;;;;17.80;99.90;;;;;;4991413;28;20020;-70
2022/04/13 14:09:42;;;;;;;;;;;17.90;99.90;;;;;;5014819;28;20016;-70
2022/04/13 14:12:07;;;;;;;;;;;18.10;99.90;;;;;;5007627;28;20348;-70
2022/04/13 14:14:33;;;;;;;;;;;18.20;99.90;;;;;;5006404;28;20335;-70
2022/04/13 14:16:59;;;;;;;;;;;17.70;99.90;;;;;;5022051;28;20222;-70